This is the latest recevied weather packets stored in our database for station/object NR6G-5. If no packets are shown the sender has not sent any weather packets the latest 1 day(s).
| Time | Temp. | Humidity | Pressure | Rain* | Wind** | Luminosity | Snow |
|---|---|---|---|---|---|---|---|
| 1778061101 | 11.67° C | 90% | 1017.3 hPa | 0 mm | 0 m/s | - | - |
| 1778060799 | 11.67° C | 90% | 1017.4 hPa | 0 mm | 0 m/s | - | - |
| 1778060499 | 11.67° C | 89% | 1017.4 hPa | 0 mm | 0.45 m/s, 256° | - | - |
| 1778060198 | 11.67° C | 89% | 1017.3 hPa | 0 mm | 0.45 m/s, 256° | - | - |
| 1778059898 | 11.67° C | 88% | 1017.3 hPa | 0 mm | 0 m/s | - | - |
| 1778059600 | 12.22° C | 88% | 1017.2 hPa | 0 mm | 0 m/s | - | - |
| 1778059299 | 12.22° C | 87% | 1017.2 hPa | 0 mm | 0 m/s | - | - |
| 1778058701 | 12.78° C | 84% | 1017.2 hPa | 0 mm | 0 m/s | - | - |
| 1778058399 | 13.33° C | 82% | 1017.2 hPa | 0 mm | 0.45 m/s, 248° | - | - |
| 1778058098 | 13.33° C | 81% | 1017.2 hPa | 0 mm | 1.34 m/s, 66° | - | - |
| 1778057801 | 13.89° C | 80% | 1017.2 hPa | 0 mm | 0.89 m/s, 69° | - | - |
| 1778057500 | 13.89° C | 80% | 1017.2 hPa | 0 mm | 0.89 m/s, 74° | - | - |
| 1778057198 | 13.89° C | 81% | 1017.2 hPa | 0 mm | 1.34 m/s, 77° | - | - |
| 1778056898 | 13.89° C | 81% | 1017.2 hPa | 0 mm | 1.34 m/s, 74° | - | - |
| 1778056599 | 13.89° C | 81% | 1017.2 hPa | 0 mm | 1.34 m/s, 77° | - | - |
| 1778056298 | 13.89° C | 81% | 1017.1 hPa | 0 mm | 1.34 m/s, 75° | - | - |
| 1778055999 | 13.89° C | 81% | 1017.1 hPa | 0 mm | 1.79 m/s, 73° | - | - |
| 1778055699 | 13.33° C | 82% | 1017.1 hPa | 0 mm | 1.79 m/s, 68° | - | - |
| 1778055398 | 13.33° C | 82% | 1017.1 hPa | 0 mm | 1.34 m/s, 69° | - | - |
| 1778055098 | 13.33° C | 82% | 1017.2 hPa | 0 mm | 1.79 m/s, 67° | - | - |
| 1778054799 | 13.33° C | 82% | 1017.1 hPa | 0 mm | 1.79 m/s, 66° | - | - |
| 1778053915 | 13.33° C | 84% | 1017 hPa | 0 mm | 1.34 m/s, 69° | - | - |
| 1778053615 | 13.33° C | 84% | 1017 hPa | 0 mm | 1.34 m/s, 74° | - | - |
| 1778053315 | 12.78° C | 84% | 1017 hPa | 0 mm | 1.79 m/s, 70° | - | - |
| 1778053015 | 12.78° C | 85% | 1016.9 hPa | 0 mm | 1.79 m/s, 69° | - | - |
* Rain latest hour (hover to see other rain measurements)
** Current wind speed in m/s (hover to see current wind gust speed)